createdAt,value
2023-03-07T00:02:26.834Z,6.60
2023-03-07T00:04:53.727Z,7.90
2023-03-07T00:07:20.470Z,10.80
2023-03-07T00:09:47.693Z,15.60
2023-03-07T00:12:14.552Z,14.90
2023-03-07T00:14:41.341Z,21.00
2023-03-07T00:17:08.147Z,29.00
2023-03-07T00:19:34.949Z,34.20
2023-03-07T00:22:01.729Z,40.50
2023-03-07T00:24:28.607Z,39.90
2023-03-07T00:26:55.380Z,42.20
2023-03-07T00:29:22.200Z,43.30
2023-03-07T00:31:49.068Z,43.30
2023-03-07T00:34:16.003Z,37.80
2023-03-07T00:36:42.877Z,35.70
2023-03-07T00:39:09.735Z,25.80
2023-03-07T00:41:36.649Z,26.10
2023-03-07T00:44:03.648Z,19.60
2023-03-07T00:46:30.450Z,18.50
2023-03-07T00:48:58.031Z,16.50
2023-03-07T00:51:25.025Z,14.70
2023-03-07T00:53:52.206Z,15.70
2023-03-07T00:56:25.357Z,13.40
2023-03-07T00:58:52.797Z,11.10
2023-03-07T01:01:23.042Z,12.90
2023-03-07T01:03:52.949Z,17.10
2023-03-07T01:06:23.351Z,12.00
2023-03-07T01:08:50.681Z,12.20
2023-03-07T01:11:18.055Z,13.10
2023-03-07T01:13:45.253Z,12.60
2023-03-07T01:16:21.822Z,11.20
2023-03-07T01:18:52.608Z,10.30
2023-03-07T01:21:21.301Z,10.60
2023-03-07T01:23:49.068Z,12.90
2023-03-07T01:26:21.721Z,15.10
2023-03-07T01:28:51.149Z,13.60
2023-03-07T01:31:18.137Z,13.70
2023-03-07T01:33:47.860Z,14.30
2023-03-07T01:36:18.940Z,12.50
2023-03-07T01:38:48.253Z,14.20
2023-03-07T01:41:15.999Z,13.30
2023-03-07T01:43:43.641Z,14.10
2023-03-07T01:46:17.839Z,13.00
2023-03-07T01:48:53.627Z,10.80
2023-03-07T01:51:21.487Z,11.50
2023-03-07T01:53:51.716Z,10.10
2023-03-07T01:56:20.315Z,9.80
2023-03-07T01:58:47.595Z,9.10
2023-03-07T02:01:15.780Z,9.40
2023-03-07T02:03:50.294Z,8.70
2023-03-07T02:06:18.824Z,8.80
2023-03-07T02:08:49.575Z,9.60
2023-03-07T02:11:16.951Z,14.30
2023-03-07T02:13:43.883Z,16.80
2023-03-07T02:16:11.250Z,15.00
2023-03-07T02:18:45.962Z,18.20
2023-03-07T02:21:15.462Z,22.20
2023-03-07T02:24:04.461Z,25.10
2023-03-07T02:26:31.230Z,24.80
2023-03-07T02:29:00.354Z,26.40
2023-03-07T02:31:27.719Z,25.80
2023-03-07T02:33:54.952Z,25.10
2023-03-07T02:36:28.402Z,20.00
2023-03-07T02:39:25.015Z,14.40
2023-03-07T02:41:54.826Z,13.80
2023-03-07T02:44:27.684Z,14.10
2023-03-07T02:46:54.598Z,13.80
2023-03-07T02:49:24.156Z,13.00
2023-03-07T02:51:51.046Z,10.20
2023-03-07T02:54:17.856Z,10.50
2023-03-07T02:56:44.831Z,9.10
2023-03-07T02:59:11.653Z,8.40
2023-03-07T03:01:38.448Z,8.00
2023-03-07T03:04:05.254Z,7.20
2023-03-07T03:06:32.020Z,7.80
2023-03-07T03:08:58.878Z,8.00
2023-03-07T03:11:26.661Z,8.40
2023-03-07T03:13:54.393Z,8.10
2023-03-07T03:16:22.230Z,8.20
2023-03-07T03:18:49.114Z,8.20
2023-03-07T03:21:15.895Z,8.90
2023-03-07T03:23:42.728Z,8.40
2023-03-07T03:26:11.242Z,9.60
2023-03-07T03:28:39.892Z,8.60
2023-03-07T03:31:14.555Z,9.40
2023-03-07T03:33:43.604Z,9.30
2023-03-07T03:36:14.166Z,9.50
2023-03-07T03:38:42.234Z,9.40
2023-03-07T03:41:17.594Z,9.90
2023-03-07T03:43:45.239Z,9.20
2023-03-07T03:46:12.435Z,10.10
2023-03-07T03:48:40.245Z,10.30
2023-03-07T03:51:12.301Z,10.40
2023-03-07T03:53:40.151Z,9.80
2023-03-07T03:56:09.591Z,8.40
2023-03-07T03:58:36.381Z,8.40
2023-03-07T04:01:08.675Z,7.20
2023-03-07T04:03:46.577Z,9.20
2023-03-07T04:06:19.267Z,9.50
2023-03-07T04:08:46.465Z,10.70
2023-03-07T04:11:13.507Z,8.50
2023-03-07T04:13:40.674Z,9.80
2023-03-07T04:16:07.941Z,11.20
2023-03-07T04:18:35.868Z,9.90
2023-03-07T04:21:04.665Z,11.70
2023-03-07T04:23:32.618Z,11.10
2023-03-07T04:26:01.429Z,10.40
2023-03-07T04:28:45.697Z,10.80
2023-03-07T04:31:25.667Z,10.30
2023-03-07T04:33:54.549Z,13.00
2023-03-07T04:36:22.973Z,12.70
2023-03-07T04:38:51.076Z,11.90
2023-03-07T04:41:25.681Z,12.70
2023-03-07T04:43:56.979Z,17.60
2023-03-07T04:46:25.735Z,15.40
2023-03-07T04:48:53.291Z,13.90
2023-03-07T04:51:20.671Z,17.30
2023-03-07T04:53:48.795Z,17.80
2023-03-07T04:56:16.117Z,23.90
2023-03-07T04:58:44.424Z,27.80
2023-03-07T05:01:11.745Z,31.60
2023-03-07T05:03:38.728Z,35.70
2023-03-07T05:06:09.965Z,26.80
2023-03-07T05:08:37.105Z,30.80
2023-03-07T05:11:04.067Z,27.00
2023-03-07T05:13:31.563Z,30.00
2023-03-07T05:15:59.060Z,25.40
2023-03-07T05:18:27.681Z,25.80
2023-03-07T05:20:56.489Z,22.60
2023-03-07T05:23:23.552Z,23.20
2023-03-07T05:25:51.382Z,21.20
2023-03-07T05:28:19.037Z,19.40
2023-03-07T05:30:46.916Z,16.40
2023-03-07T05:33:14.561Z,14.40
2023-03-07T05:35:42.157Z,13.10
2023-03-07T05:38:10.586Z,12.80
2023-03-07T05:40:37.657Z,18.30
2023-03-07T05:43:05.191Z,16.90
2023-03-07T05:45:32.513Z,15.70
2023-03-07T05:48:00.689Z,19.30
2023-03-07T05:50:27.983Z,16.20
2023-03-07T05:52:55.098Z,17.00
2023-03-07T05:55:24.642Z,16.50
2023-03-07T05:57:51.799Z,15.60
2023-03-07T06:00:19.462Z,14.10
2023-03-07T06:02:49.085Z,12.50
2023-03-07T06:05:16.270Z,12.50
2023-03-07T06:07:43.638Z,12.50
2023-03-07T06:10:11.961Z,14.10
2023-03-07T06:12:38.896Z,13.30
2023-03-07T06:15:06.897Z,12.40
2023-03-07T06:17:34.585Z,12.80
2023-03-07T06:20:01.837Z,14.80
2023-03-07T06:22:31.222Z,12.40
2023-03-07T06:24:58.519Z,12.90
2023-03-07T06:27:25.729Z,13.30
2023-03-07T06:29:52.601Z,14.90
2023-03-07T06:32:19.524Z,13.10
2023-03-07T06:34:46.474Z,13.90
2023-03-07T06:37:13.613Z,14.40
2023-03-07T06:39:40.515Z,14.80
2023-03-07T06:42:07.366Z,13.50
2023-03-07T06:44:35.068Z,12.80
2023-03-07T06:47:02.581Z,13.80
2023-03-07T06:49:29.731Z,13.70
2023-03-07T06:51:56.794Z,12.60
2023-03-07T06:54:23.652Z,10.80
2023-03-07T06:56:51.293Z,12.50
2023-03-07T06:59:20.053Z,13.10
2023-03-07T07:01:48.261Z,15.70
2023-03-07T07:04:15.370Z,13.20
2023-03-07T07:06:42.746Z,12.40
2023-03-07T07:09:12.128Z,15.90
2023-03-07T07:11:39.239Z,13.60
2023-03-07T07:14:08.855Z,12.10
2023-03-07T07:16:37.096Z,13.70
2023-03-07T07:19:04.644Z,10.70
2023-03-07T07:21:32.267Z,10.80
2023-03-07T07:23:59.086Z,11.60
2023-03-07T07:26:26.403Z,10.60
2023-03-07T07:28:53.404Z,15.80
2023-03-07T07:31:20.202Z,14.50
2023-03-07T07:33:47.680Z,10.90
2023-03-07T07:36:14.953Z,11.90
2023-03-07T07:38:41.779Z,12.00
2023-03-07T07:41:08.676Z,11.20
2023-03-07T07:43:35.508Z,10.70
2023-03-07T07:46:17.505Z,10.00
2023-03-07T07:48:47.232Z,10.60
2023-03-07T07:51:14.734Z,10.70
2023-03-07T07:53:41.760Z,9.40
2023-03-07T07:56:09.014Z,10.70
2023-03-07T07:58:35.858Z,10.70
2023-03-07T08:01:17.989Z,10.30
2023-03-07T08:03:44.813Z,11.00
2023-03-07T08:06:12.263Z,10.10
2023-03-07T08:08:39.222Z,9.60
2023-03-07T08:11:06.047Z,9.70
2023-03-07T08:13:32.965Z,13.40
2023-03-07T08:15:59.851Z,13.60
2023-03-07T08:18:26.683Z,9.00
2023-03-07T08:20:53.624Z,9.50
2023-03-07T08:23:20.444Z,9.90
2023-03-07T08:25:47.605Z,9.40
2023-03-07T08:28:14.447Z,9.50
2023-03-07T08:30:41.387Z,8.60
2023-03-07T08:33:08.889Z,8.30
2023-03-07T08:35:35.767Z,9.10
2023-03-07T08:38:02.751Z,8.80
2023-03-07T08:40:30.833Z,7.20
2023-03-07T08:43:00.647Z,6.40
2023-03-07T08:45:27.493Z,6.10
2023-03-07T08:47:55.443Z,5.80
2023-03-07T08:50:25.847Z,6.40
2023-03-07T08:52:52.773Z,6.40
2023-03-07T08:55:19.829Z,6.10
2023-03-07T08:57:47.020Z,6.60
2023-03-07T09:00:14.623Z,6.10
2023-03-07T09:02:41.392Z,6.90
2023-03-07T09:05:09.097Z,7.50
2023-03-07T09:07:35.935Z,6.10
2023-03-07T09:10:03.820Z,6.40
2023-03-07T09:12:30.960Z,5.90
2023-03-07T09:14:57.701Z,6.30
2023-03-07T09:17:24.483Z,6.60
2023-03-07T09:19:51.349Z,5.80
2023-03-07T09:22:18.133Z,5.80
2023-03-07T09:24:45.202Z,6.60
2023-03-07T09:27:12.102Z,6.50
2023-03-07T09:29:38.937Z,6.90
2023-03-07T09:32:05.957Z,4.40
2023-03-07T09:34:32.810Z,4.00
2023-03-07T09:36:59.708Z,3.40
2023-03-07T09:39:26.483Z,4.40
2023-03-07T09:42:14.654Z,5.70
2023-03-07T09:44:44.458Z,3.20
2023-03-07T09:47:57.287Z,3.80
2023-03-07T09:50:37.660Z,3.10
2023-03-07T09:53:05.548Z,2.50
2023-03-07T09:55:32.447Z,2.70
2023-03-07T09:58:05.368Z,2.90
2023-03-07T10:00:41.007Z,3.10
2023-03-07T10:03:42.455Z,2.90
2023-03-07T10:06:37.120Z,2.80
2023-03-07T10:09:06.921Z,2.70
2023-03-07T10:12:12.400Z,3.10
2023-03-07T10:15:27.320Z,2.90
2023-03-07T10:18:20.233Z,2.80
2023-03-07T10:20:48.824Z,4.00
2023-03-07T10:23:33.152Z,10.80
2023-03-07T10:26:05.901Z,6.80
2023-03-07T10:28:36.060Z,6.90
2023-03-07T10:31:17.880Z,6.50
2023-03-07T10:33:49.494Z,5.80
2023-03-07T10:36:39.489Z,6.30
2023-03-07T10:39:12.017Z,5.70
2023-03-07T10:41:39.243Z,5.30
2023-03-07T10:44:14.043Z,5.60
2023-03-07T10:46:47.061Z,5.20
2023-03-07T10:49:27.042Z,6.00
2023-03-07T10:52:31.605Z,6.30
2023-03-07T10:55:37.900Z,5.40
2023-03-07T10:58:22.103Z,5.80
2023-03-07T11:03:42.493Z,4.80
2023-03-07T11:06:34.958Z,5.20
2023-03-07T11:09:10.463Z,5.80
2023-03-07T11:11:37.715Z,5.00
2023-03-07T11:14:08.135Z,6.20
2023-03-07T11:16:55.324Z,5.50
2023-03-07T11:19:28.360Z,6.00
2023-03-07T11:21:57.401Z,6.10
2023-03-07T11:24:25.591Z,5.70
2023-03-07T11:26:58.128Z,5.60
2023-03-07T11:29:27.958Z,6.00
2023-03-07T11:32:11.764Z,5.80
2023-03-07T11:35:11.193Z,5.40
2023-03-07T11:37:43.632Z,5.40
2023-03-07T11:40:25.648Z,6.00
2023-03-07T11:43:00.076Z,5.00
2023-03-07T11:45:46.413Z,8.80
2023-03-07T11:48:33.417Z,6.60
2023-03-07T11:51:04.056Z,6.60
2023-03-07T11:53:41.070Z,5.70
2023-03-07T11:56:25.645Z,5.80
2023-03-07T11:58:58.571Z,8.20
2023-03-07T12:01:32.454Z,6.20
2023-03-07T12:04:14.217Z,5.70
2023-03-07T12:06:50.152Z,6.20
2023-03-07T12:09:22.873Z,5.20
2023-03-07T12:12:06.282Z,4.30
2023-03-07T12:14:58.560Z,4.80
2023-03-07T12:17:28.549Z,4.90
2023-03-07T12:20:14.604Z,4.70
2023-03-07T12:23:08.835Z,4.60
2023-03-07T12:25:38.476Z,4.60
2023-03-07T12:28:10.791Z,4.60
2023-03-07T12:31:05.925Z,4.80
2023-03-07T12:33:53.831Z,5.30
2023-03-07T12:36:27.075Z,5.00
2023-03-07T12:39:00.768Z,5.00
2023-03-07T12:41:30.628Z,4.20
2023-03-07T12:44:02.699Z,4.70
2023-03-07T12:46:49.442Z,4.20
2023-03-07T12:49:28.024Z,4.90
2023-03-07T12:51:59.188Z,4.60
2023-03-07T12:54:38.254Z,4.60
2023-03-07T12:58:17.887Z,5.00
2023-03-07T13:01:17.411Z,5.40
2023-03-07T13:04:12.108Z,4.70
2023-03-07T13:06:41.640Z,5.10
2023-03-07T13:09:21.438Z,4.60
2023-03-07T13:12:15.904Z,4.50
2023-03-07T13:14:47.911Z,4.20
2023-03-07T13:17:29.993Z,5.00
2023-03-07T13:20:04.499Z,4.60
2023-03-07T13:22:31.280Z,4.50
2023-03-07T13:25:27.603Z,4.50
2023-03-07T13:27:57.472Z,4.50
2023-03-07T13:30:26.946Z,4.30
2023-03-07T13:32:54.124Z,4.00
2023-03-07T13:35:24.114Z,4.40
2023-03-07T13:38:13.914Z,4.20
2023-03-07T13:40:41.793Z,3.40
2023-03-07T13:43:26.321Z,4.40
2023-03-07T13:46:07.260Z,4.40
2023-03-07T13:48:37.159Z,4.90
2023-03-07T13:51:08.288Z,4.90
2023-03-07T13:53:38.478Z,4.60
2023-03-07T13:56:19.593Z,4.70
2023-03-07T13:58:52.027Z,4.30
2023-03-07T14:01:20.599Z,4.80
2023-03-07T14:03:55.542Z,4.70
2023-03-07T14:06:40.238Z,5.20
2023-03-07T14:09:14.201Z,4.80
2023-03-07T14:14:59.312Z,3.80
2023-03-07T14:17:37.371Z,5.00
2023-03-07T14:20:46.380Z,6.00
2023-03-07T14:23:37.997Z,4.60
2023-03-07T14:26:33.763Z,5.10
2023-03-07T14:29:19.031Z,4.70
2023-03-07T14:31:47.728Z,4.90
2023-03-07T14:34:20.677Z,4.60
2023-03-07T14:36:56.034Z,5.20
2023-03-07T14:39:24.931Z,5.50
2023-03-07T14:42:30.503Z,4.90
2023-03-07T14:45:08.929Z,3.90
2023-03-07T14:48:16.204Z,5.70
2023-03-07T14:50:44.568Z,5.60
2023-03-07T14:53:17.669Z,5.00
2023-03-07T14:55:47.287Z,17.60
2023-03-07T14:58:32.151Z,18.50
2023-03-07T15:01:01.696Z,7.20
2023-03-07T15:03:29.407Z,4.60
2023-03-07T15:05:59.466Z,5.50
2023-03-07T15:08:29.520Z,5.50
2023-03-07T15:11:06.513Z,7.60
2023-03-07T15:13:56.830Z,14.60
2023-03-07T15:16:26.870Z,13.90
2023-03-07T15:19:17.038Z,9.20
2023-03-07T15:21:47.358Z,14.10
2023-03-07T15:24:22.358Z,12.20
2023-03-07T15:26:52.388Z,10.10
2023-03-07T15:29:25.357Z,10.10
2023-03-07T15:32:06.697Z,34.40
2023-03-07T15:34:39.047Z,15.90
2023-03-07T15:37:27.317Z,11.90
2023-03-07T15:39:55.383Z,44.80
2023-03-07T15:42:22.552Z,17.30
2023-03-07T15:44:58.875Z,23.40
2023-03-07T15:47:28.416Z,23.70
2023-03-07T15:50:01.235Z,29.60
2023-03-07T15:52:32.046Z,25.60
2023-03-07T15:55:01.713Z,19.20
2023-03-07T15:57:33.260Z,14.80
2023-03-07T16:00:04.396Z,15.30
2023-03-07T16:02:31.344Z,19.60
2023-03-07T16:05:04.770Z,25.20
2023-03-07T16:07:31.721Z,22.10
2023-03-07T16:09:58.673Z,24.50
2023-03-07T16:12:25.962Z,26.50
2023-03-07T16:14:55.016Z,30.10
2023-03-07T16:17:35.509Z,34.60
2023-03-07T16:20:03.902Z,41.30
2023-03-07T16:22:30.769Z,43.60
2023-03-07T16:24:57.819Z,30.50
2023-03-07T16:27:27.552Z,26.70
2023-03-07T16:29:54.969Z,43.40
2023-03-07T16:33:23.017Z,92.60
2023-03-07T16:35:52.066Z,73.80
2023-03-07T16:38:18.936Z,61.80
2023-03-07T16:40:45.727Z,49.40
2023-03-07T16:43:39.312Z,35.10
2023-03-07T16:46:13.421Z,19.40
2023-03-07T16:51:14.109Z,13.40
2023-03-07T16:53:40.858Z,15.30
2023-03-07T16:56:32.930Z,15.60
2023-03-07T16:59:00.987Z,16.90
2023-03-07T17:01:27.873Z,18.90
2023-03-07T17:03:56.052Z,19.50
2023-03-07T17:06:33.614Z,25.60
2023-03-07T17:09:06.852Z,21.70
2023-03-07T17:11:33.815Z,19.40
2023-03-07T17:14:04.601Z,19.90
2023-03-07T17:16:32.277Z,30.20
2023-03-07T17:19:01.514Z,31.30
2023-03-07T17:21:28.281Z,28.70
2023-03-07T17:23:55.292Z,20.30
2023-03-07T17:26:32.772Z,16.30
2023-03-07T17:29:08.930Z,17.20
2023-03-07T17:31:35.740Z,15.70
2023-03-07T17:34:03.111Z,18.30
2023-03-07T17:36:30.942Z,17.30
2023-03-07T17:38:57.754Z,17.90
2023-03-07T17:41:24.795Z,14.90
2023-03-07T17:43:51.949Z,15.90
2023-03-07T17:46:18.820Z,15.60
2023-03-07T17:48:45.680Z,7.40
2023-03-07T17:51:12.419Z,16.40
2023-03-07T17:53:39.172Z,14.10
2023-03-07T17:56:11.473Z,15.20
2023-03-07T17:58:38.766Z,14.30
2023-03-07T18:01:07.849Z,13.80
2023-03-07T18:03:35.088Z,13.00
2023-03-07T18:06:02.277Z,14.80
2023-03-07T18:08:29.494Z,13.60
2023-03-07T18:11:11.468Z,12.70
2023-03-07T18:13:38.757Z,12.90
2023-03-07T18:16:06.751Z,11.90
2023-03-07T18:18:36.491Z,11.60
2023-03-07T18:21:12.938Z,11.00
2023-03-07T18:23:40.696Z,10.60
2023-03-07T18:26:10.998Z,12.00
2023-03-07T18:28:40.324Z,13.90
2023-03-07T18:31:09.097Z,11.80
2023-03-07T18:33:36.931Z,11.70
2023-03-07T18:36:05.200Z,11.10
2023-03-07T18:38:32.504Z,11.80
2023-03-07T18:41:11.005Z,11.00
2023-03-07T18:43:38.746Z,12.50
2023-03-07T18:46:11.965Z,13.50
2023-03-07T18:48:45.944Z,11.90
2023-03-07T18:53:42.110Z,14.00
2023-03-07T18:56:54.438Z,13.50
2023-03-07T18:59:21.429Z,13.20
2023-03-07T19:01:49.685Z,17.20
2023-03-07T19:04:17.031Z,20.20
2023-03-07T19:06:46.833Z,17.30
2023-03-07T19:09:19.698Z,15.40
2023-03-07T19:11:47.166Z,15.70
2023-03-07T19:14:14.317Z,15.00
2023-03-07T19:16:41.115Z,14.20
2023-03-07T19:19:08.046Z,16.90
2023-03-07T19:21:34.941Z,18.00
2023-03-07T19:24:04.028Z,19.60
2023-03-07T19:26:30.861Z,20.70
2023-03-07T19:28:58.358Z,16.80
2023-03-07T19:31:29.434Z,19.80
2023-03-07T19:33:57.309Z,18.00
2023-03-07T19:36:27.294Z,16.70
2023-03-07T19:38:58.441Z,18.60
2023-03-07T19:41:27.706Z,19.00
2023-03-07T19:43:56.023Z,16.20
2023-03-07T19:46:23.381Z,16.10
2023-03-07T19:48:50.388Z,14.50
2023-03-07T19:51:25.927Z,15.00
2023-03-07T19:53:55.940Z,12.40
2023-03-07T19:56:29.352Z,13.80
2023-03-07T19:58:57.974Z,11.80
2023-03-07T20:01:26.463Z,13.50
2023-03-07T20:03:54.736Z,11.80
2023-03-07T20:06:24.828Z,10.80
2023-03-07T20:08:53.342Z,10.70
2023-03-07T20:11:25.680Z,11.10
2023-03-07T20:13:55.545Z,11.20
2023-03-07T20:16:23.475Z,10.90
2023-03-07T20:18:51.810Z,11.10
2023-03-07T20:21:20.622Z,12.80
2023-03-07T20:23:48.370Z,11.30
2023-03-07T20:26:18.617Z,15.50
2023-03-07T20:28:45.823Z,17.10
2023-03-07T20:31:13.517Z,19.40
2023-03-07T20:33:45.692Z,27.80
2023-03-07T20:36:18.171Z,30.20
2023-03-07T20:38:49.610Z,23.60
2023-03-07T20:41:20.337Z,17.50
2023-03-07T20:43:47.850Z,20.90
2023-03-07T20:46:15.997Z,21.60
2023-03-07T20:48:43.340Z,17.00
2023-03-07T20:51:19.353Z,14.40
2023-03-07T20:53:51.957Z,13.60
2023-03-07T20:56:20.501Z,14.50
2023-03-07T20:58:47.485Z,11.70
2023-03-07T21:01:16.247Z,13.50
2023-03-07T21:03:43.122Z,13.10
2023-03-07T21:06:10.039Z,11.50
2023-03-07T21:08:37.910Z,11.10
2023-03-07T21:11:19.772Z,11.00
2023-03-07T21:13:48.683Z,10.00
2023-03-07T21:16:21.695Z,9.20
2023-03-07T21:18:48.874Z,10.40
2023-03-07T21:21:18.423Z,9.70
2023-03-07T21:23:45.903Z,10.20
2023-03-07T21:26:15.581Z,10.80
2023-03-07T21:28:42.770Z,11.30
2023-03-07T21:31:12.660Z,11.60
2023-03-07T21:33:41.772Z,11.80
2023-03-07T21:36:09.640Z,11.20
2023-03-07T21:38:38.632Z,9.90
2023-03-07T21:41:06.243Z,10.10
2023-03-07T21:43:33.623Z,10.00
2023-03-07T21:46:06.062Z,10.20
2023-03-07T21:48:33.604Z,11.70
2023-03-07T21:51:00.819Z,8.50
2023-03-07T21:53:28.081Z,8.20
2023-03-07T21:55:57.869Z,9.00
2023-03-07T21:58:24.646Z,10.20
2023-03-07T22:00:53.204Z,9.50
2023-03-07T22:03:20.377Z,10.50
2023-03-07T22:05:47.137Z,9.80
2023-03-07T22:08:15.505Z,9.80
2023-03-07T22:10:43.589Z,9.20
2023-03-07T22:13:10.621Z,8.80
2023-03-07T22:15:40.220Z,8.40
2023-03-07T22:18:07.042Z,8.60
2023-03-07T22:20:33.875Z,7.80
2023-03-07T22:23:00.662Z,7.70
2023-03-07T22:25:27.563Z,7.00
2023-03-07T22:27:54.297Z,6.80
2023-03-07T22:30:21.146Z,7.80
2023-03-07T22:32:48.017Z,8.10
2023-03-07T22:35:14.764Z,8.90
2023-03-07T22:37:41.977Z,7.10
2023-03-07T22:40:09.412Z,6.50
2023-03-07T22:42:36.196Z,6.30
2023-03-07T22:45:03.227Z,6.90
2023-03-07T22:47:30.706Z,7.70
2023-03-07T22:49:57.626Z,6.00
2023-03-07T22:52:24.878Z,5.70
2023-03-07T22:54:53.898Z,6.40
2023-03-07T22:57:20.753Z,7.30
2023-03-07T22:59:48.291Z,7.20
2023-03-07T23:02:15.040Z,7.00
2023-03-07T23:04:41.825Z,6.50
2023-03-07T23:07:09.312Z,8.20
2023-03-07T23:09:36.183Z,9.30
2023-03-07T23:12:03.027Z,7.90
2023-03-07T23:14:29.868Z,7.50
2023-03-07T23:16:56.619Z,6.60
2023-03-07T23:19:23.400Z,7.00
2023-03-07T23:21:50.272Z,6.90
2023-03-07T23:24:17.222Z,5.80
2023-03-07T23:26:44.072Z,6.10
2023-03-07T23:29:11.311Z,7.80
2023-03-07T23:31:40.846Z,6.40
2023-03-07T23:34:16.659Z,5.70
2023-03-07T23:36:44.295Z,5.80
2023-03-07T23:39:12.142Z,5.00
2023-03-07T23:41:39.005Z,6.30
2023-03-07T23:44:05.881Z,5.90
2023-03-07T23:46:33.094Z,6.60
2023-03-07T23:49:00.688Z,11.00
2023-03-07T23:51:27.471Z,8.90
2023-03-07T23:53:54.311Z,8.20
2023-03-07T23:56:21.708Z,6.60
2023-03-07T23:58:52.377Z,6.90
